createdAt,value
2018-03-04T00:02:19.481Z,79.48
2018-03-04T00:04:51.185Z,81.01
2018-03-04T00:07:23.269Z,79.77
2018-03-04T00:09:54.832Z,80.29
2018-03-04T00:12:25.953Z,80.26
2018-03-04T00:14:57.318Z,78.42
2018-03-04T00:17:28.861Z,77.93
2018-03-04T00:20:00.049Z,77.26
2018-03-04T00:22:39.722Z,77.47
2018-03-04T00:25:11.273Z,77.59
2018-03-04T00:27:43.242Z,78.41
2018-03-04T00:30:15.154Z,80.74
2018-03-04T00:32:47.280Z,78.50
2018-03-04T00:35:18.393Z,77.25
2018-03-04T00:37:50.068Z,76.74
2018-03-04T00:40:23.827Z,78.70
2018-03-04T00:42:55.429Z,78.84
2018-03-04T00:45:27.781Z,78.92
2018-03-04T00:47:59.492Z,77.13
2018-03-04T00:50:31.012Z,77.08
2018-03-04T00:53:02.454Z,76.32
2018-03-04T00:55:34.550Z,80.86
2018-03-04T00:58:06.661Z,81.92
2018-03-04T01:00:38.851Z,80.14
2018-03-04T01:03:10.960Z,80.40
2018-03-04T01:05:42.898Z,78.35
2018-03-04T01:08:15.033Z,80.91
2018-03-04T01:10:47.425Z,82.45
2018-03-04T01:13:19.751Z,83.32
2018-03-04T01:15:51.474Z,83.05
2018-03-04T01:18:22.898Z,82.39
2018-03-04T01:20:54.433Z,82.17
2018-03-04T01:23:26.608Z,79.40
2018-03-04T01:25:57.740Z,77.47
2018-03-04T01:28:29.472Z,79.26
2018-03-04T01:31:02.101Z,79.78
2018-03-04T01:33:34.399Z,82.43
2018-03-04T01:36:06.589Z,82.75
2018-03-04T01:38:38.389Z,79.53
2018-03-04T01:41:10.490Z,78.20
2018-03-04T01:43:42.402Z,77.27
2018-03-04T01:46:13.912Z,75.44
2018-03-04T01:48:46.040Z,75.56
2018-03-04T01:51:17.759Z,74.39
2018-03-04T01:53:49.328Z,74.01
2018-03-04T01:56:20.992Z,73.70
2018-03-04T01:58:58.662Z,74.00
2018-03-04T02:01:30.572Z,73.50
2018-03-04T02:04:02.057Z,78.36
2018-03-04T02:06:33.629Z,77.23
2018-03-04T02:09:05.781Z,77.32
2018-03-04T02:11:37.758Z,76.71
2018-03-04T02:14:09.813Z,80.61
2018-03-04T02:16:41.373Z,80.31
2018-03-04T02:19:13.401Z,78.36
2018-03-04T02:21:45.415Z,77.54
2018-03-04T02:24:17.519Z,76.79
2018-03-04T02:26:49.356Z,76.66
2018-03-04T02:29:20.604Z,77.45
2018-03-04T02:31:53.110Z,79.26
2018-03-04T02:34:25.096Z,77.33
2018-03-04T02:36:57.003Z,76.27
2018-03-04T02:39:29.028Z,76.50
2018-03-04T02:42:11.486Z,77.32
2018-03-04T02:44:43.827Z,75.89
2018-03-04T02:47:15.730Z,77.91
2018-03-04T02:49:47.766Z,82.67
2018-03-04T02:52:20.548Z,82.50
2018-03-04T02:54:52.384Z,80.96
2018-03-04T02:57:24.107Z,83.03
2018-03-04T02:59:56.278Z,83.56
2018-03-04T03:02:28.078Z,83.56
2018-03-04T03:04:59.715Z,83.14
2018-03-04T03:07:31.430Z,83.17
2018-03-04T03:10:04.764Z,81.41
2018-03-04T03:12:36.396Z,82.81
2018-03-04T03:15:07.867Z,84.70
2018-03-04T03:17:39.749Z,85.50
2018-03-04T03:20:11.363Z,85.48
2018-03-04T03:22:43.046Z,81.91
2018-03-04T03:25:15.033Z,85.27
2018-03-04T03:27:46.685Z,84.75
2018-03-04T03:30:18.214Z,83.42
2018-03-04T03:32:50.250Z,83.92
2018-03-04T03:35:22.466Z,84.24
2018-03-04T03:37:54.269Z,84.20
2018-03-04T03:40:26.009Z,83.92
2018-03-04T03:42:58.249Z,80.40
2018-03-04T03:45:30.105Z,78.19
2018-03-04T03:48:01.829Z,78.33
2018-03-04T03:50:33.681Z,77.16
2018-03-04T03:53:08.585Z,76.90
2018-03-04T03:55:40.207Z,80.76
2018-03-04T03:58:12.375Z,78.00
2018-03-04T04:00:44.321Z,82.96
2018-03-04T04:03:15.894Z,82.72
2018-03-04T04:05:47.474Z,81.25
2018-03-04T04:08:19.578Z,81.76
2018-03-04T04:10:51.313Z,82.40
2018-03-04T04:13:23.475Z,85.04
2018-03-04T04:15:54.929Z,86.15
2018-03-04T04:18:26.476Z,85.81
2018-03-04T04:20:59.010Z,86.77
2018-03-04T04:23:30.109Z,87.33
2018-03-04T04:26:03.552Z,88.20
2018-03-04T04:28:35.098Z,87.17
2018-03-04T04:31:06.469Z,86.27
2018-03-04T04:33:38.091Z,86.81
2018-03-04T04:36:09.688Z,85.26
2018-03-04T04:38:40.801Z,82.63
2018-03-04T04:41:12.405Z,82.61
2018-03-04T04:43:44.488Z,84.08
2018-03-04T04:46:17.401Z,86.13
2018-03-04T04:48:48.912Z,82.12
2018-03-04T04:51:21.046Z,82.42
2018-03-04T04:53:52.157Z,82.50
2018-03-04T04:56:23.924Z,80.53
2018-03-04T04:58:54.933Z,82.51
2018-03-04T05:01:26.919Z,84.53
2018-03-04T05:03:58.212Z,83.99
2018-03-04T05:06:30.025Z,80.81
2018-03-04T05:09:01.548Z,80.19
2018-03-04T05:11:33.627Z,83.60
2018-03-04T05:14:05.307Z,85.97
2018-03-04T05:16:36.685Z,85.83
2018-03-04T05:19:08.522Z,86.68
2018-03-04T05:21:40.062Z,88.38
2018-03-04T05:24:11.452Z,87.89
2018-03-04T05:26:43.197Z,87.82
2018-03-04T05:29:15.280Z,86.68
2018-03-04T05:31:46.997Z,88.93
2018-03-04T05:34:18.647Z,88.98
2018-03-04T05:36:50.841Z,88.97
2018-03-04T05:39:22.728Z,89.14
2018-03-04T05:41:54.324Z,89.42
2018-03-04T05:44:26.300Z,89.42
2018-03-04T05:46:58.445Z,90.03
2018-03-04T05:49:30.315Z,88.03
2018-03-04T05:52:06.298Z,89.34
2018-03-04T05:54:38.517Z,89.24
2018-03-04T05:57:11.213Z,90.04
2018-03-04T05:59:42.746Z,90.77
2018-03-04T06:02:13.873Z,90.86
2018-03-04T06:04:45.940Z,91.29
2018-03-04T06:07:17.872Z,91.61
2018-03-04T06:09:49.792Z,91.81
2018-03-04T06:12:21.609Z,91.78
2018-03-04T06:14:53.860Z,91.82
2018-03-04T06:17:25.409Z,91.50
2018-03-04T06:19:57.420Z,91.69
2018-03-04T06:22:29.791Z,89.42
2018-03-04T06:25:01.707Z,89.52
2018-03-04T06:27:33.584Z,89.62
2018-03-04T06:30:09.690Z,89.65
2018-03-04T06:32:41.915Z,84.88
2018-03-04T06:35:13.950Z,88.71
2018-03-04T06:37:45.730Z,89.37
2018-03-04T06:40:18.505Z,89.48
2018-03-04T06:42:51.818Z,88.64
2018-03-04T06:45:24.013Z,89.76
2018-03-04T06:47:55.640Z,88.50
2018-03-04T06:50:27.730Z,89.37
2018-03-04T06:53:00.330Z,89.83
2018-03-04T06:55:31.832Z,90.17
2018-03-04T06:58:03.247Z,90.25
2018-03-04T07:00:34.624Z,90.16
2018-03-04T07:03:08.086Z,89.04
2018-03-04T07:05:49.896Z,89.43
2018-03-04T07:08:21.504Z,89.36
2018-03-04T07:11:00.607Z,89.13
2018-03-04T07:13:32.792Z,88.72
2018-03-04T07:16:06.049Z,88.17
2018-03-04T07:18:37.474Z,88.28
2018-03-04T07:21:09.581Z,88.28
2018-03-04T07:23:41.814Z,85.33
2018-03-04T07:26:15.839Z,84.01
2018-03-04T07:28:47.568Z,87.21
2018-03-04T07:31:19.844Z,87.50
2018-03-04T07:33:51.865Z,84.19
2018-03-04T07:36:24.053Z,86.70
2018-03-04T07:38:55.564Z,86.77
2018-03-04T07:41:27.625Z,86.06
2018-03-04T07:44:04.295Z,86.96
2018-03-04T07:46:35.641Z,86.92
2018-03-04T07:49:07.385Z,85.43
2018-03-04T07:51:38.856Z,86.68
2018-03-04T07:54:10.103Z,86.71
2018-03-04T07:56:41.407Z,85.74
2018-03-04T07:59:13.410Z,83.81
2018-03-04T08:01:47.880Z,82.84
2018-03-04T08:04:19.609Z,84.54
2018-03-04T08:06:50.856Z,85.05
2018-03-04T08:09:24.670Z,82.39
2018-03-04T08:11:56.130Z,83.96
2018-03-04T08:14:27.951Z,84.70
2018-03-04T08:16:59.650Z,80.31
2018-03-04T08:19:31.124Z,78.59
2018-03-04T08:22:03.170Z,82.71
2018-03-04T08:24:40.641Z,80.33
2018-03-04T08:29:24.365Z,81.44
2018-03-04T08:31:55.186Z,82.65
2018-03-04T08:34:26.926Z,83.00
2018-03-04T08:36:58.218Z,82.95
2018-03-04T08:39:29.085Z,81.39
2018-03-04T08:42:00.895Z,80.48
2018-03-04T08:44:31.927Z,81.06
2018-03-04T08:47:04.692Z,81.00
2018-03-04T08:49:36.585Z,81.52
2018-03-04T08:52:08.031Z,78.58
2018-03-04T08:54:39.149Z,78.66
2018-03-04T08:57:10.873Z,79.11
2018-03-04T08:59:42.111Z,78.45
2018-03-04T09:02:13.467Z,79.08
2018-03-04T09:04:44.266Z,76.25
2018-03-04T09:07:15.832Z,78.46
2018-03-04T09:09:46.768Z,78.07
2018-03-04T09:12:18.220Z,76.87
2018-03-04T09:14:49.413Z,77.54
2018-03-04T09:17:23.428Z,78.21
2018-03-04T09:19:54.122Z,76.73
2018-03-04T09:22:28.176Z,76.29
2018-03-04T09:24:59.443Z,76.73
2018-03-04T09:27:30.289Z,75.74
2018-03-04T09:30:03.435Z,75.15
2018-03-04T09:32:34.244Z,74.34
2018-03-04T09:35:09.241Z,76.19
2018-03-04T09:40:15.112Z,76.34
2018-03-04T09:42:47.362Z,76.22
2018-03-04T09:48:00.364Z,73.09
2018-03-04T09:50:31.176Z,70.89
2018-03-04T09:53:02.309Z,71.48
2018-03-04T09:55:33.080Z,73.06
2018-03-04T09:58:03.906Z,76.85
2018-03-04T10:00:34.815Z,76.14
2018-03-04T10:03:06.704Z,75.65
2018-03-04T10:05:37.504Z,75.03
2018-03-04T10:08:09.288Z,74.71
2018-03-04T10:10:40.824Z,74.34
2018-03-04T10:13:11.668Z,73.50
2018-03-04T10:15:42.476Z,73.19
2018-03-04T10:18:13.822Z,74.86
2018-03-04T10:20:44.918Z,74.71
2018-03-04T10:23:16.139Z,72.58
2018-03-04T10:25:46.937Z,72.07
2018-03-04T10:28:18.021Z,72.85
2018-03-04T10:30:49.400Z,73.82
2018-03-04T10:33:20.237Z,73.29
2018-03-04T10:35:51.381Z,72.24
2018-03-04T10:38:22.194Z,73.68
2018-03-04T10:40:52.969Z,72.58
2018-03-04T10:43:24.224Z,73.11
2018-03-04T10:45:55.889Z,73.02
2018-03-04T10:48:27.024Z,71.60
2018-03-04T10:50:57.853Z,71.60
2018-03-04T10:53:29.153Z,72.59
2018-03-04T10:56:02.789Z,71.95
2018-03-04T10:58:34.045Z,70.54
2018-03-04T11:01:10.655Z,70.73
2018-03-04T11:03:41.800Z,71.50
2018-03-04T11:06:13.074Z,71.23
2018-03-04T11:08:43.894Z,71.47
2018-03-04T11:11:15.005Z,71.93
2018-03-04T11:13:45.785Z,71.95
2018-03-04T11:16:16.669Z,71.83
2018-03-04T11:18:47.845Z,70.95
2018-03-04T11:21:18.626Z,71.10
2018-03-04T11:23:51.885Z,70.54
2018-03-04T11:26:25.084Z,69.77
2018-03-04T11:29:11.413Z,69.52
2018-03-04T11:31:42.653Z,68.83
2018-03-04T11:34:13.449Z,69.01
2018-03-04T11:36:45.573Z,68.99
2018-03-04T11:39:17.142Z,68.19
2018-03-04T11:41:48.037Z,67.17
2018-03-04T11:44:18.857Z,69.56
2018-03-04T11:46:50.568Z,69.33
2018-03-04T11:49:21.453Z,67.12
2018-03-04T11:51:52.517Z,67.73
2018-03-04T11:54:24.376Z,66.58
2018-03-04T11:56:55.193Z,65.80
2018-03-04T11:59:30.224Z,65.92
2018-03-04T12:02:02.573Z,65.89
2018-03-04T12:04:33.345Z,65.09
2018-03-04T12:07:05.729Z,66.23
2018-03-04T12:09:36.824Z,64.92
2018-03-04T12:12:07.743Z,64.82
2018-03-04T12:14:38.830Z,64.52
2018-03-04T12:17:09.678Z,63.70
2018-03-04T12:19:41.025Z,62.36
2018-03-04T12:22:12.478Z,59.99
2018-03-04T12:24:43.309Z,60.85
2018-03-04T12:27:14.415Z,59.67
2018-03-04T12:29:46.884Z,61.93
2018-03-04T12:32:19.216Z,60.35
2018-03-04T12:34:50.907Z,61.13
2018-03-04T12:37:21.769Z,61.38
2018-03-04T12:39:52.580Z,59.84
2018-03-04T12:42:23.629Z,61.86
2018-03-04T12:44:55.419Z,62.58
2018-03-04T12:47:26.507Z,60.89
2018-03-04T12:49:57.768Z,61.65
2018-03-04T12:52:28.636Z,60.32
2018-03-04T12:55:00.380Z,60.27
2018-03-04T12:57:31.687Z,60.67
2018-03-04T13:00:02.745Z,61.83
2018-03-04T13:02:33.807Z,60.88
2018-03-04T13:05:05.505Z,63.02
2018-03-04T13:07:36.341Z,62.39
2018-03-04T13:10:11.327Z,60.18
2018-03-04T13:12:42.291Z,60.22
2018-03-04T13:15:20.371Z,57.93
2018-03-04T13:17:51.290Z,60.12
2018-03-04T13:20:23.695Z,60.21
2018-03-04T13:22:54.782Z,60.65
2018-03-04T13:25:25.669Z,60.05
2018-03-04T13:27:56.929Z,59.30
2018-03-04T13:30:27.752Z,60.22
2018-03-04T13:32:59.590Z,61.07
2018-03-04T13:35:31.256Z,60.02
2018-03-04T13:38:03.784Z,60.21
2018-03-04T13:40:35.023Z,59.92
2018-03-04T13:43:06.123Z,60.01
2018-03-04T13:45:36.965Z,60.39
2018-03-04T13:48:08.027Z,60.67
2018-03-04T13:50:38.871Z,60.04
2018-03-04T13:53:09.666Z,60.47
2018-03-04T13:55:41.730Z,61.88
2018-03-04T13:58:16.473Z,61.68
2018-03-04T14:00:48.954Z,61.81
2018-03-04T14:03:20.808Z,62.21
2018-03-04T14:05:51.593Z,62.10
2018-03-04T14:08:22.702Z,62.62
2018-03-04T14:10:53.533Z,62.70
2018-03-04T14:13:24.669Z,62.24
2018-03-04T14:15:55.533Z,62.04
2018-03-04T14:18:26.389Z,62.20
2018-03-04T14:20:57.504Z,62.71
2018-03-04T14:23:28.330Z,63.11
2018-03-04T14:25:59.286Z,63.48
2018-03-04T14:28:32.792Z,63.46
2018-03-04T14:31:03.597Z,63.41
2018-03-04T14:33:34.438Z,63.10
2018-03-04T14:36:05.704Z,63.42
2018-03-04T14:38:36.924Z,63.06
2018-03-04T14:41:08.633Z,62.75
2018-03-04T14:43:39.384Z,62.21
2018-03-04T14:46:10.201Z,62.67
2018-03-04T14:48:41.275Z,62.72
2018-03-04T14:51:12.169Z,62.53
2018-03-04T14:53:42.953Z,62.41
2018-03-04T14:56:14.113Z,62.03
2018-03-04T14:58:45.236Z,61.42
2018-03-04T15:01:16.001Z,61.84
2018-03-04T15:03:47.957Z,62.35
2018-03-04T15:06:18.793Z,63.17
2018-03-04T15:08:49.589Z,62.51
2018-03-04T15:11:20.441Z,63.26
2018-03-04T15:13:51.532Z,63.13
2018-03-04T15:16:22.346Z,62.56
2018-03-04T15:18:54.207Z,61.82
2018-03-04T15:21:25.453Z,64.11
2018-03-04T15:23:56.330Z,64.62
2018-03-04T15:26:27.746Z,63.69
2018-03-04T15:28:58.877Z,63.18
2018-03-04T15:31:29.721Z,63.40
2018-03-04T15:34:00.622Z,62.96
2018-03-04T15:36:32.352Z,63.60
2018-03-04T15:39:03.196Z,64.10
2018-03-04T15:41:34.113Z,64.33
2018-03-04T15:44:05.070Z,65.76
2018-03-04T15:46:36.065Z,64.38
2018-03-04T15:49:06.929Z,64.06
2018-03-04T15:51:38.269Z,65.04
2018-03-04T15:54:09.061Z,64.87
2018-03-04T15:56:40.332Z,65.39
2018-03-04T15:59:11.105Z,64.42
2018-03-04T16:01:41.885Z,64.64
2018-03-04T16:04:13.113Z,64.28
2018-03-04T16:06:43.982Z,64.01
2018-03-04T16:09:14.828Z,64.09
2018-03-04T16:11:46.358Z,63.57
2018-03-04T16:14:17.152Z,64.91
2018-03-04T16:16:49.293Z,64.94
2018-03-04T16:19:20.122Z,64.50
2018-03-04T16:21:51.014Z,64.84
2018-03-04T16:24:22.392Z,65.76
2018-03-04T16:26:53.329Z,66.00
2018-03-04T16:29:24.260Z,66.14
2018-03-04T16:31:55.405Z,65.90
2018-03-04T16:34:26.209Z,66.66
2018-03-04T16:36:57.054Z,66.43
2018-03-04T16:39:28.285Z,66.40
2018-03-04T16:41:59.288Z,67.07
2018-03-04T16:44:36.597Z,67.25
2018-03-04T16:47:07.809Z,67.04
2018-03-04T16:49:38.661Z,67.62
2018-03-04T16:52:09.861Z,67.63
2018-03-04T16:54:40.748Z,67.43
2018-03-04T16:57:12.144Z,67.72
2018-03-04T16:59:43.054Z,67.50
2018-03-04T17:02:15.181Z,67.37
2018-03-04T17:04:47.869Z,66.94
2018-03-04T17:07:18.768Z,67.83
2018-03-04T17:09:50.095Z,67.85
2018-03-04T17:12:21.310Z,68.10
2018-03-04T17:14:52.117Z,69.38
2018-03-04T17:17:23.188Z,69.15
2018-03-04T17:19:54.001Z,69.31
2018-03-04T17:22:24.804Z,69.55
2018-03-04T17:24:57.125Z,69.65
2018-03-04T17:27:27.930Z,69.27
2018-03-04T17:29:59.370Z,70.06
2018-03-04T17:32:30.533Z,71.08
2018-03-04T17:35:01.436Z,71.07
2018-03-04T17:37:32.260Z,71.16
2018-03-04T17:40:03.724Z,71.29
2018-03-04T17:42:34.609Z,71.58
2018-03-04T17:45:06.995Z,71.44
2018-03-04T17:47:37.892Z,70.87
2018-03-04T17:50:08.009Z,70.92
2018-03-04T17:52:39.153Z,71.27
2018-03-04T17:55:10.216Z,71.98
2018-03-04T17:57:41.060Z,72.31
2018-03-04T18:00:13.174Z,71.69
2018-03-04T18:02:44.027Z,72.09
2018-03-04T18:05:14.860Z,72.16
2018-03-04T18:07:46.015Z,73.50
2018-03-04T18:10:16.882Z,73.23
2018-03-04T18:12:47.650Z,73.73
2018-03-04T18:15:18.837Z,73.29
2018-03-04T18:17:49.653Z,72.81
2018-03-04T18:20:20.454Z,73.30
2018-03-04T18:22:51.685Z,72.88
2018-03-04T18:25:22.521Z,72.85
2018-03-04T18:27:53.280Z,73.76
2018-03-04T18:30:24.421Z,73.51
2018-03-04T18:32:55.296Z,73.53
2018-03-04T18:35:26.146Z,73.06
2018-03-04T18:37:57.237Z,72.77
2018-03-04T18:40:28.113Z,72.39
2018-03-04T18:42:58.996Z,72.78
2018-03-04T18:45:30.202Z,72.80
2018-03-04T18:48:01.145Z,73.40
2018-03-04T18:50:32.737Z,72.33
2018-03-04T18:53:03.556Z,72.85
2018-03-04T18:55:34.403Z,74.36
2018-03-04T18:58:05.704Z,74.60
2018-03-04T19:00:36.733Z,74.01
2018-03-04T19:03:08.026Z,74.15
2018-03-04T19:05:39.117Z,73.00
2018-03-04T19:08:10.059Z,74.84
2018-03-04T19:10:40.845Z,74.19
2018-03-04T19:13:11.932Z,74.93
2018-03-04T19:15:42.793Z,74.62
2018-03-04T19:18:13.634Z,74.57
2018-03-04T19:20:44.765Z,77.12
2018-03-04T19:23:15.607Z,75.67
2018-03-04T19:25:47.065Z,77.21
2018-03-04T19:28:18.029Z,75.75
2018-03-04T19:30:48.869Z,77.00
2018-03-04T19:33:19.985Z,76.04
2018-03-04T19:35:50.821Z,74.66
2018-03-04T19:38:22.230Z,75.67
2018-03-04T19:40:53.173Z,76.01
2018-03-04T19:43:24.474Z,76.54
2018-03-04T19:45:56.149Z,75.41
2018-03-04T19:48:27.197Z,76.35
2018-03-04T19:50:58.014Z,75.89
2018-03-04T19:53:29.162Z,75.15
2018-03-04T19:56:00.011Z,75.90
2018-03-04T19:58:31.002Z,76.07
2018-03-04T20:01:04.039Z,76.65
2018-03-04T20:03:34.971Z,75.20
2018-03-04T20:06:07.063Z,75.02
2018-03-04T20:08:38.186Z,75.08
2018-03-04T20:11:09.917Z,75.08
2018-03-04T20:13:40.813Z,74.76
2018-03-04T20:16:12.169Z,76.04
2018-03-04T20:18:42.969Z,75.65
2018-03-04T20:21:14.104Z,75.87
2018-03-04T20:23:45.513Z,75.31
2018-03-04T20:26:16.504Z,76.53
2018-03-04T20:28:48.199Z,75.61
2018-03-04T20:31:19.069Z,77.66
2018-03-04T20:33:49.954Z,76.24
2018-03-04T20:36:21.107Z,76.75
2018-03-04T20:38:53.220Z,76.50
2018-03-04T20:41:25.084Z,76.15
2018-03-04T20:43:56.333Z,76.43
2018-03-04T20:46:28.113Z,77.53
2018-03-04T20:49:00.205Z,77.64
2018-03-04T20:51:31.659Z,77.34
2018-03-04T20:54:04.441Z,77.20
2018-03-04T20:56:35.617Z,76.36
2018-03-04T20:59:06.478Z,76.47
2018-03-04T21:01:38.338Z,77.11
2018-03-04T21:04:09.523Z,77.95
2018-03-04T21:06:40.365Z,77.63
2018-03-04T21:09:11.196Z,77.72
2018-03-04T21:11:42.334Z,78.09
2018-03-04T21:14:13.613Z,78.96
2018-03-04T21:16:44.453Z,78.19
2018-03-04T21:19:15.603Z,77.82
2018-03-04T21:21:46.561Z,78.89
2018-03-04T21:24:18.069Z,78.15
2018-03-04T21:26:50.148Z,78.55
2018-03-04T21:29:21.666Z,78.83
2018-03-04T21:31:52.553Z,77.94
2018-03-04T21:34:24.237Z,78.02
2018-03-04T21:36:55.896Z,78.27
2018-03-04T21:39:26.630Z,77.50
2018-03-04T21:41:58.257Z,77.63
2018-03-04T21:44:29.755Z,76.60
2018-03-04T21:47:01.562Z,77.54
2018-03-04T21:49:32.394Z,77.66
2018-03-04T21:52:03.266Z,80.23
2018-03-04T21:54:34.348Z,79.24
2018-03-04T21:57:05.203Z,79.08
2018-03-04T21:59:36.252Z,77.09
2018-03-04T22:02:08.925Z,76.84
2018-03-04T22:04:40.072Z,77.53
2018-03-04T22:07:12.434Z,77.71
2018-03-04T22:09:43.312Z,77.71
2018-03-04T22:12:14.109Z,77.32
2018-03-04T22:14:45.218Z,78.72
2018-03-04T22:17:16.476Z,78.57
2018-03-04T22:19:47.241Z,77.36
2018-03-04T22:22:18.386Z,76.91
2018-03-04T22:24:49.112Z,76.92
2018-03-04T22:27:19.894Z,76.55
2018-03-04T22:29:52.077Z,77.35
2018-03-04T22:32:22.868Z,77.65
2018-03-04T22:34:54.018Z,78.72
2018-03-04T22:37:25.489Z,77.57
2018-03-04T22:39:56.620Z,76.01
2018-03-04T22:42:27.441Z,75.42
2018-03-04T22:44:59.294Z,76.17
2018-03-04T22:47:30.325Z,77.75
2018-03-04T22:50:01.085Z,78.74
2018-03-04T22:52:31.881Z,78.73
2018-03-04T22:55:03.186Z,77.64
2018-03-04T22:57:34.070Z,79.70
2018-03-04T23:00:08.048Z,80.57
2018-03-04T23:02:38.944Z,80.76
2018-03-04T23:05:09.804Z,77.73
2018-03-04T23:07:41.736Z,76.58
2018-03-04T23:10:12.701Z,79.62
2018-03-04T23:12:50.444Z,77.13
2018-03-04T23:15:22.852Z,79.08
2018-03-04T23:17:54.092Z,79.45
2018-03-04T23:20:26.461Z,79.26
2018-03-04T23:22:58.113Z,79.53
2018-03-04T23:25:28.918Z,78.10
2018-03-04T23:28:00.466Z,79.04
2018-03-04T23:30:31.294Z,77.65
2018-03-04T23:33:02.981Z,77.77
2018-03-04T23:35:34.316Z,78.72
2018-03-04T23:38:07.450Z,79.66
2018-03-04T23:40:38.273Z,79.56
2018-03-04T23:43:09.452Z,79.12
2018-03-04T23:45:40.284Z,78.09
2018-03-04T23:48:11.505Z,78.94
2018-03-04T23:50:42.302Z,79.17
2018-03-04T23:53:13.085Z,79.53
2018-03-04T23:55:44.233Z,79.35
2018-03-04T23:58:15.087Z,79.75
